sensor_id;sensor_type;location;lat;lon;timestamp;P1;durP1;ratioP1;P2;durP2;ratioP2
49592;SDS011;35499;51.482;4.264;2022-11-15T00:02:03;22.40;;;9.37;;
49592;SDS011;35499;51.482;4.264;2022-11-15T00:04:29;21.92;;;10.43;;
49592;SDS011;35499;51.482;4.264;2022-11-15T00:06:54;21.52;;;10.15;;
49592;SDS011;35499;51.482;4.264;2022-11-15T00:09:20;17.90;;;8.27;;
49592;SDS011;35499;51.482;4.264;2022-11-15T00:11:45;15.17;;;9.30;;
49592;SDS011;35499;51.482;4.264;2022-11-15T00:14:10;17.60;;;7.77;;
49592;SDS011;35499;51.482;4.264;2022-11-15T00:16:35;17.70;;;8.70;;
49592;SDS011;35499;51.482;4.264;2022-11-15T00:19:00;21.20;;;10.13;;
49592;SDS011;35499;51.482;4.264;2022-11-15T00:21:25;22.50;;;9.43;;
49592;SDS011;35499;51.482;4.264;2022-11-15T00:23:51;18.37;;;7.40;;
49592;SDS011;35499;51.482;4.264;2022-11-15T00:26:16;14.57;;;7.97;;
49592;SDS011;35499;51.482;4.264;2022-11-15T00:28:41;16.63;;;7.20;;
49592;SDS011;35499;51.482;4.264;2022-11-15T00:31:08;20.90;;;8.23;;
49592;SDS011;35499;51.482;4.264;2022-11-15T00:33:33;15.20;;;7.57;;
49592;SDS011;35499;51.482;4.264;2022-11-15T00:36:03;19.17;;;8.30;;
49592;SDS011;35499;51.482;4.264;2022-11-15T00:38:34;21.88;;;8.98;;
49592;SDS011;35499;51.482;4.264;2022-11-15T00:40:59;16.58;;;7.93;;
49592;SDS011;35499;51.482;4.264;2022-11-15T00:43:25;17.92;;;7.65;;
49592;SDS011;35499;51.482;4.264;2022-11-15T00:45:50;22.15;;;8.40;;
49592;SDS011;35499;51.482;4.264;2022-11-15T00:48:15;15.60;;;8.03;;
49592;SDS011;35499;51.482;4.264;2022-11-15T00:50:41;12.70;;;6.17;;
49592;SDS011;35499;51.482;4.264;2022-11-15T00:53:06;14.43;;;8.10;;
49592;SDS011;35499;51.482;4.264;2022-11-15T00:55:31;12.93;;;6.87;;
49592;SDS011;35499;51.482;4.264;2022-11-15T00:57:56;18.37;;;9.47;;
49592;SDS011;35499;51.482;4.264;2022-11-15T01:00:21;19.40;;;8.80;;
49592;SDS011;35499;51.482;4.264;2022-11-15T01:02:47;16.63;;;7.47;;
49592;SDS011;35499;51.482;4.264;2022-11-15T01:05:12;14.33;;;8.97;;
49592;SDS011;35499;51.482;4.264;2022-11-15T01:07:37;12.90;;;5.73;;
49592;SDS011;35499;51.482;4.264;2022-11-15T01:10:02;10.37;;;5.13;;
49592;SDS011;35499;51.482;4.264;2022-11-15T01:12:28;16.23;;;8.60;;
49592;SDS011;35499;51.482;4.264;2022-11-15T01:14:53;14.30;;;6.80;;
49592;SDS011;35499;51.482;4.264;2022-11-15T01:17:19;20.25;;;7.93;;
49592;SDS011;35499;51.482;4.264;2022-11-15T01:19:44;14.17;;;7.27;;
49592;SDS011;35499;51.482;4.264;2022-11-15T01:22:10;14.70;;;7.47;;
49592;SDS011;35499;51.482;4.264;2022-11-15T01:24:35;13.10;;;5.97;;
49592;SDS011;35499;51.482;4.264;2022-11-15T01:27:00;15.53;;;6.93;;
49592;SDS011;35499;51.482;4.264;2022-11-15T01:29:25;13.00;;;5.90;;
49592;SDS011;35499;51.482;4.264;2022-11-15T01:31:52;13.70;;;5.87;;
49592;SDS011;35499;51.482;4.264;2022-11-15T01:36:43;15.50;;;6.25;;
49592;SDS011;35499;51.482;4.264;2022-11-15T01:39:08;12.93;;;5.40;;
49592;SDS011;35499;51.482;4.264;2022-11-15T01:41:33;18.97;;;7.10;;
49592;SDS011;35499;51.482;4.264;2022-11-15T01:46:42;18.48;;;7.95;;
49592;SDS011;35499;51.482;4.264;2022-11-15T01:49:16;13.73;;;7.20;;
49592;SDS011;35499;51.482;4.264;2022-11-15T01:51:42;12.18;;;6.65;;
49592;SDS011;35499;51.482;4.264;2022-11-15T01:54:08;12.03;;;5.93;;
49592;SDS011;35499;51.482;4.264;2022-11-15T01:56:36;14.43;;;5.82;;
49592;SDS011;35499;51.482;4.264;2022-11-15T01:59:05;11.10;;;6.03;;
49592;SDS011;35499;51.482;4.264;2022-11-15T02:01:32;12.27;;;6.10;;
49592;SDS011;35499;51.482;4.264;2022-11-15T02:03:59;11.00;;;5.68;;
49592;SDS011;35499;51.482;4.264;2022-11-15T02:06:24;10.38;;;4.57;;
49592;SDS011;35499;51.482;4.264;2022-11-15T02:08:50;11.17;;;5.43;;
49592;SDS011;35499;51.482;4.264;2022-11-15T02:11:15;10.68;;;4.70;;
49592;SDS011;35499;51.482;4.264;2022-11-15T02:13:40;15.17;;;6.87;;
49592;SDS011;35499;51.482;4.264;2022-11-15T02:18:55;11.48;;;6.13;;
49592;SDS011;35499;51.482;4.264;2022-11-15T02:31:39;12.95;;;4.53;;
49592;SDS011;35499;51.482;4.264;2022-11-15T02:37:34;11.63;;;6.07;;
49592;SDS011;35499;51.482;4.264;2022-11-15T02:39:43;14.27;;;5.82;;
49592;SDS011;35499;51.482;4.264;2022-11-15T02:42:13;13.32;;;6.50;;
49592;SDS011;35499;51.482;4.264;2022-11-15T02:44:59;12.93;;;5.35;;
49592;SDS011;35499;51.482;4.264;2022-11-15T02:47:28;10.40;;;5.80;;
49592;SDS011;35499;51.482;4.264;2022-11-15T02:49:57;11.27;;;4.90;;
49592;SDS011;35499;51.482;4.264;2022-11-15T02:55:01;10.48;;;5.53;;
49592;SDS011;35499;51.482;4.264;2022-11-15T03:00:02;8.25;;;4.28;;
49592;SDS011;35499;51.482;4.264;2022-11-15T03:07:24;16.02;;;6.47;;
49592;SDS011;35499;51.482;4.264;2022-11-15T03:12:27;11.98;;;5.32;;
49592;SDS011;35499;51.482;4.264;2022-11-15T03:14:57;18.60;;;6.22;;
49592;SDS011;35499;51.482;4.264;2022-11-15T03:19:54;11.77;;;6.28;;
49592;SDS011;35499;51.482;4.264;2022-11-15T03:22:20;8.05;;;5.32;;
49592;SDS011;35499;51.482;4.264;2022-11-15T03:24:46;12.15;;;5.85;;
49592;SDS011;35499;51.482;4.264;2022-11-15T03:27:15;10.32;;;5.13;;
49592;SDS011;35499;51.482;4.264;2022-11-15T03:29:43;9.48;;;5.20;;
49592;SDS011;35499;51.482;4.264;2022-11-15T03:32:12;15.68;;;5.05;;
49592;SDS011;35499;51.482;4.264;2022-11-15T03:34:49;10.38;;;4.97;;
49592;SDS011;35499;51.482;4.264;2022-11-15T03:37:15;6.40;;;3.47;;
49592;SDS011;35499;51.482;4.264;2022-11-15T03:39:42;9.80;;;4.50;;
49592;SDS011;35499;51.482;4.264;2022-11-15T03:47:11;11.05;;;4.20;;
49592;SDS011;35499;51.482;4.264;2022-11-15T03:49:38;11.05;;;3.67;;
49592;SDS011;35499;51.482;4.264;2022-11-15T03:52:05;9.40;;;4.25;;
49592;SDS011;35499;51.482;4.264;2022-11-15T03:54:31;11.33;;;3.90;;
49592;SDS011;35499;51.482;4.264;2022-11-15T03:56:56;6.27;;;2.30;;
49592;SDS011;35499;51.482;4.264;2022-11-15T03:59:21;8.00;;;3.67;;
49592;SDS011;35499;51.482;4.264;2022-11-15T04:01:46;4.97;;;2.77;;
49592;SDS011;35499;51.482;4.264;2022-11-15T04:04:12;9.70;;;4.17;;
49592;SDS011;35499;51.482;4.264;2022-11-15T04:06:37;7.00;;;2.77;;
49592;SDS011;35499;51.482;4.264;2022-11-15T04:09:02;10.10;;;3.63;;
49592;SDS011;35499;51.482;4.264;2022-11-15T04:11:28;8.23;;;3.40;;
49592;SDS011;35499;51.482;4.264;2022-11-15T04:13:53;7.63;;;3.57;;
49592;SDS011;35499;51.482;4.264;2022-11-15T04:16:18;10.87;;;3.33;;
49592;SDS011;35499;51.482;4.264;2022-11-15T04:18:43;6.00;;;3.13;;
49592;SDS011;35499;51.482;4.264;2022-11-15T04:21:08;7.72;;;2.63;;
49592;SDS011;35499;51.482;4.264;2022-11-15T04:23:52;7.82;;;3.65;;
49592;SDS011;35499;51.482;4.264;2022-11-15T04:26:30;9.73;;;3.42;;
49592;SDS011;35499;51.482;4.264;2022-11-15T04:28:55;7.70;;;2.67;;
49592;SDS011;35499;51.482;4.264;2022-11-15T04:31:39;8.35;;;3.13;;
49592;SDS011;35499;51.482;4.264;2022-11-15T04:34:04;9.37;;;3.03;;
49592;SDS011;35499;51.482;4.264;2022-11-15T04:36:29;4.80;;;2.33;;
49592;SDS011;35499;51.482;4.264;2022-11-15T04:39:13;6.38;;;3.15;;
49592;SDS011;35499;51.482;4.264;2022-11-15T04:41:39;2.40;;;1.63;;
49592;SDS011;35499;51.482;4.264;2022-11-15T04:44:04;11.23;;;2.73;;
49592;SDS011;35499;51.482;4.264;2022-11-15T04:46:29;4.47;;;2.60;;
49592;SDS011;35499;51.482;4.264;2022-11-15T04:48:54;8.17;;;3.00;;
49592;SDS011;35499;51.482;4.264;2022-11-15T04:51:19;5.17;;;2.50;;
49592;SDS011;35499;51.482;4.264;2022-11-15T04:53:45;3.93;;;2.40;;
49592;SDS011;35499;51.482;4.264;2022-11-15T04:56:10;5.80;;;2.93;;
49592;SDS011;35499;51.482;4.264;2022-11-15T04:58:35;5.17;;;3.33;;
49592;SDS011;35499;51.482;4.264;2022-11-15T05:01:10;5.53;;;2.73;;
49592;SDS011;35499;51.482;4.264;2022-11-15T05:03:36;5.50;;;2.80;;
49592;SDS011;35499;51.482;4.264;2022-11-15T05:06:20;6.47;;;3.03;;
49592;SDS011;35499;51.482;4.264;2022-11-15T05:08:45;11.93;;;2.93;;
49592;SDS011;35499;51.482;4.264;2022-11-15T05:11:11;4.83;;;2.37;;
49592;SDS011;35499;51.482;4.264;2022-11-15T05:13:36;9.63;;;2.57;;
49592;SDS011;35499;51.482;4.264;2022-11-15T05:16:01;10.80;;;3.13;;
49592;SDS011;35499;51.482;4.264;2022-11-15T05:18:26;4.38;;;2.05;;
49592;SDS011;35499;51.482;4.264;2022-11-15T05:20:51;11.83;;;3.17;;
49592;SDS011;35499;51.482;4.264;2022-11-15T05:23:17;4.65;;;2.35;;
49592;SDS011;35499;51.482;4.264;2022-11-15T05:25:42;2.80;;;1.77;;
49592;SDS011;35499;51.482;4.264;2022-11-15T05:28:07;6.33;;;2.27;;
49592;SDS011;35499;51.482;4.264;2022-11-15T05:30:32;12.50;;;4.03;;
49592;SDS011;35499;51.482;4.264;2022-11-15T05:32:57;8.30;;;3.13;;
49592;SDS011;35499;51.482;4.264;2022-11-15T05:35:34;7.73;;;3.17;;
49592;SDS011;35499;51.482;4.264;2022-11-15T05:38:01;17.77;;;3.20;;
49592;SDS011;35499;51.482;4.264;2022-11-15T05:40:26;6.57;;;3.70;;
49592;SDS011;35499;51.482;4.264;2022-11-15T05:42:52;4.43;;;2.72;;
49592;SDS011;35499;51.482;4.264;2022-11-15T05:45:17;4.78;;;2.67;;
49592;SDS011;35499;51.482;4.264;2022-11-15T05:47:42;9.07;;;3.30;;
49592;SDS011;35499;51.482;4.264;2022-11-15T05:50:10;7.38;;;3.10;;
49592;SDS011;35499;51.482;4.264;2022-11-15T05:52:37;5.53;;;2.28;;
49592;SDS011;35499;51.482;4.264;2022-11-15T05:55:03;8.97;;;3.33;;
49592;SDS011;35499;51.482;4.264;2022-11-15T05:57:29;7.63;;;3.05;;
49592;SDS011;35499;51.482;4.264;2022-11-15T05:59:54;7.80;;;3.30;;
49592;SDS011;35499;51.482;4.264;2022-11-15T06:02:19;5.20;;;3.35;;
49592;SDS011;35499;51.482;4.264;2022-11-15T06:04:44;5.73;;;3.07;;
49592;SDS011;35499;51.482;4.264;2022-11-15T06:07:10;5.80;;;2.63;;
49592;SDS011;35499;51.482;4.264;2022-11-15T06:09:35;13.73;;;4.57;;
49592;SDS011;35499;51.482;4.264;2022-11-15T06:12:00;6.57;;;3.10;;
49592;SDS011;35499;51.482;4.264;2022-11-15T06:14:25;7.63;;;2.80;;
49592;SDS011;35499;51.482;4.264;2022-11-15T06:16:50;5.35;;;2.80;;
49592;SDS011;35499;51.482;4.264;2022-11-15T06:19:15;5.43;;;2.20;;
49592;SDS011;35499;51.482;4.264;2022-11-15T06:21:41;11.57;;;2.83;;
49592;SDS011;35499;51.482;4.264;2022-11-15T06:24:06;7.13;;;2.83;;
49592;SDS011;35499;51.482;4.264;2022-11-15T06:26:32;7.25;;;3.25;;
49592;SDS011;35499;51.482;4.264;2022-11-15T06:28:57;8.77;;;3.03;;
49592;SDS011;35499;51.482;4.264;2022-11-15T06:31:22;7.17;;;2.30;;
49592;SDS011;35499;51.482;4.264;2022-11-15T06:33:48;3.33;;;1.65;;
49592;SDS011;35499;51.482;4.264;2022-11-15T06:36:14;2.95;;;1.92;;
49592;SDS011;35499;51.482;4.264;2022-11-15T06:38:41;4.50;;;1.95;;
49592;SDS011;35499;51.482;4.264;2022-11-15T06:41:07;4.03;;;1.80;;
49592;SDS011;35499;51.482;4.264;2022-11-15T06:43:33;4.60;;;2.10;;
49592;SDS011;35499;51.482;4.264;2022-11-15T06:45:59;5.75;;;2.47;;
49592;SDS011;35499;51.482;4.264;2022-11-15T06:48:24;4.72;;;2.13;;
49592;SDS011;35499;51.482;4.264;2022-11-15T06:50:53;9.73;;;2.15;;
49592;SDS011;35499;51.482;4.264;2022-11-15T06:53:19;6.65;;;1.73;;
49592;SDS011;35499;51.482;4.264;2022-11-15T06:55:44;5.27;;;2.40;;
49592;SDS011;35499;51.482;4.264;2022-11-15T06:58:09;4.67;;;2.23;;
49592;SDS011;35499;51.482;4.264;2022-11-15T07:00:34;8.30;;;3.07;;
49592;SDS011;35499;51.482;4.264;2022-11-15T07:03:00;2.47;;;1.53;;
49592;SDS011;35499;51.482;4.264;2022-11-15T07:05:25;6.28;;;2.22;;
49592;SDS011;35499;51.482;4.264;2022-11-15T07:07:51;3.73;;;2.80;;
49592;SDS011;35499;51.482;4.264;2022-11-15T07:10:17;5.20;;;2.80;;
49592;SDS011;35499;51.482;4.264;2022-11-15T07:12:42;3.90;;;1.90;;
49592;SDS011;35499;51.482;4.264;2022-11-15T07:15:07;4.38;;;1.65;;
49592;SDS011;35499;51.482;4.264;2022-11-15T07:17:33;2.35;;;1.75;;
49592;SDS011;35499;51.482;4.264;2022-11-15T07:19:59;3.40;;;1.40;;
49592;SDS011;35499;51.482;4.264;2022-11-15T07:22:24;3.00;;;2.15;;
49592;SDS011;35499;51.482;4.264;2022-11-15T07:24:49;4.97;;;2.20;;
49592;SDS011;35499;51.482;4.264;2022-11-15T07:27:14;1.30;;;1.20;;
49592;SDS011;35499;51.482;4.264;2022-11-15T07:29:40;4.17;;;1.70;;
49592;SDS011;35499;51.482;4.264;2022-11-15T07:32:05;5.70;;;2.33;;
49592;SDS011;35499;51.482;4.264;2022-11-15T07:34:30;7.67;;;2.00;;
49592;SDS011;35499;51.482;4.264;2022-11-15T07:36:55;1.07;;;0.70;;
49592;SDS011;35499;51.482;4.264;2022-11-15T07:39:20;3.13;;;1.63;;
49592;SDS011;35499;51.482;4.264;2022-11-15T07:41:45;5.80;;;1.63;;
49592;SDS011;35499;51.482;4.264;2022-11-15T07:44:13;4.18;;;1.10;;
49592;SDS011;35499;51.482;4.264;2022-11-15T07:46:38;1.88;;;1.33;;
49592;SDS011;35499;51.482;4.264;2022-11-15T07:49:03;7.60;;;2.67;;
49592;SDS011;35499;51.482;4.264;2022-11-15T07:51:28;3.43;;;1.93;;
49592;SDS011;35499;51.482;4.264;2022-11-15T07:53:53;6.47;;;2.20;;
49592;SDS011;35499;51.482;4.264;2022-11-15T07:56:18;5.90;;;2.37;;
49592;SDS011;35499;51.482;4.264;2022-11-15T07:58:45;5.90;;;2.00;;
49592;SDS011;35499;51.482;4.264;2022-11-15T08:01:10;4.93;;;1.93;;
49592;SDS011;35499;51.482;4.264;2022-11-15T08:03:37;4.93;;;2.07;;
49592;SDS011;35499;51.482;4.264;2022-11-15T08:06:03;2.22;;;1.58;;
49592;SDS011;35499;51.482;4.264;2022-11-15T08:08:28;4.70;;;2.33;;
49592;SDS011;35499;51.482;4.264;2022-11-15T08:10:54;3.90;;;2.00;;
49592;SDS011;35499;51.482;4.264;2022-11-15T08:13:19;3.28;;;2.22;;
49592;SDS011;35499;51.482;4.264;2022-11-15T08:15:44;4.77;;;2.30;;
49592;SDS011;35499;51.482;4.264;2022-11-15T08:18:11;3.35;;;1.98;;
49592;SDS011;35499;51.482;4.264;2022-11-15T08:20:36;6.03;;;2.22;;
49592;SDS011;35499;51.482;4.264;2022-11-15T08:23:02;3.03;;;1.70;;
49592;SDS011;35499;51.482;4.264;2022-11-15T08:25:29;2.63;;;1.52;;
49592;SDS011;35499;51.482;4.264;2022-11-15T08:27:55;3.45;;;1.63;;
49592;SDS011;35499;51.482;4.264;2022-11-15T08:30:21;3.85;;;2.08;;
49592;SDS011;35499;51.482;4.264;2022-11-15T08:32:47;3.55;;;2.40;;
49592;SDS011;35499;51.482;4.264;2022-11-15T08:35:12;3.55;;;2.13;;
49592;SDS011;35499;51.482;4.264;2022-11-15T08:37:38;3.17;;;1.30;;
49592;SDS011;35499;51.482;4.264;2022-11-15T08:40:04;3.92;;;1.83;;
49592;SDS011;35499;51.482;4.264;2022-11-15T08:42:29;2.67;;;1.88;;
49592;SDS011;35499;51.482;4.264;2022-11-15T08:44:54;3.37;;;1.30;;
49592;SDS011;35499;51.482;4.264;2022-11-15T08:47:19;3.30;;;1.67;;
49592;SDS011;35499;51.482;4.264;2022-11-15T08:49:44;8.13;;;1.77;;
49592;SDS011;35499;51.482;4.264;2022-11-15T08:52:10;4.50;;;2.07;;
49592;SDS011;35499;51.482;4.264;2022-11-15T08:54:35;3.03;;;1.80;;
49592;SDS011;35499;51.482;4.264;2022-11-15T08:57:00;4.10;;;1.63;;
49592;SDS011;35499;51.482;4.264;2022-11-15T08:59:25;3.47;;;1.60;;
49592;SDS011;35499;51.482;4.264;2022-11-15T09:01:50;10.80;;;2.13;;
49592;SDS011;35499;51.482;4.264;2022-11-15T09:04:15;3.17;;;1.83;;
49592;SDS011;35499;51.482;4.264;2022-11-15T09:06:41;8.17;;;1.57;;
49592;SDS011;35499;51.482;4.264;2022-11-15T09:09:06;6.37;;;1.40;;
49592;SDS011;35499;51.482;4.264;2022-11-15T09:11:31;4.70;;;1.80;;
49592;SDS011;35499;51.482;4.264;2022-11-15T09:13:56;4.07;;;1.60;;
49592;SDS011;35499;51.482;4.264;2022-11-15T09:16:22;7.00;;;2.00;;
49592;SDS011;35499;51.482;4.264;2022-11-15T09:18:47;4.00;;;1.80;;
49592;SDS011;35499;51.482;4.264;2022-11-15T09:21:12;9.63;;;2.07;;
49592;SDS011;35499;51.482;4.264;2022-11-15T09:23:37;5.57;;;1.77;;
49592;SDS011;35499;51.482;4.264;2022-11-15T09:26:03;2.83;;;1.08;;
49592;SDS011;35499;51.482;4.264;2022-11-15T09:28:29;5.32;;;1.30;;
49592;SDS011;35499;51.482;4.264;2022-11-15T09:31:01;5.68;;;1.15;;
49592;SDS011;35499;51.482;4.264;2022-11-15T09:33:27;3.50;;;1.60;;
49592;SDS011;35499;51.482;4.264;2022-11-15T09:35:52;5.82;;;1.30;;
49592;SDS011;35499;51.482;4.264;2022-11-15T09:38:18;3.25;;;1.33;;
49592;SDS011;35499;51.482;4.264;2022-11-15T09:40:43;5.60;;;1.83;;
49592;SDS011;35499;51.482;4.264;2022-11-15T09:48:07;3.20;;;1.10;;
49592;SDS011;35499;51.482;4.264;2022-11-15T09:50:48;3.85;;;1.25;;
49592;SDS011;35499;51.482;4.264;2022-11-15T09:53:25;2.53;;;1.77;;
49592;SDS011;35499;51.482;4.264;2022-11-15T09:55:56;3.13;;;1.13;;
49592;SDS011;35499;51.482;4.264;2022-11-15T09:58:30;2.10;;;0.95;;
49592;SDS011;35499;51.482;4.264;2022-11-15T10:00:58;2.40;;;0.98;;
49592;SDS011;35499;51.482;4.264;2022-11-15T10:03:34;5.20;;;1.13;;
49592;SDS011;35499;51.482;4.264;2022-11-15T10:06:02;3.35;;;1.10;;
49592;SDS011;35499;51.482;4.264;2022-11-15T10:08:31;1.73;;;0.88;;
49592;SDS011;35499;51.482;4.264;2022-11-15T10:11:05;2.95;;;1.27;;
49592;SDS011;35499;51.482;4.264;2022-11-15T10:13:35;3.45;;;1.00;;
49592;SDS011;35499;51.482;4.264;2022-11-15T10:18:43;2.58;;;0.90;;
49592;SDS011;35499;51.482;4.264;2022-11-15T10:21:15;6.93;;;1.40;;
49592;SDS011;35499;51.482;4.264;2022-11-15T10:23:41;4.78;;;1.13;;
49592;SDS011;35499;51.482;4.264;2022-11-15T10:26:08;4.45;;;0.80;;
49592;SDS011;35499;51.482;4.264;2022-11-15T10:28:34;4.55;;;1.15;;
49592;SDS011;35499;51.482;4.264;2022-11-15T10:31:00;4.73;;;1.07;;
49592;SDS011;35499;51.482;4.264;2022-11-15T10:33:29;3.15;;;1.13;;
49592;SDS011;35499;51.482;4.264;2022-11-15T10:38:49;3.25;;;1.30;;
49592;SDS011;35499;51.482;4.264;2022-11-15T10:41:20;7.85;;;1.50;;
49592;SDS011;35499;51.482;4.264;2022-11-15T10:43:45;7.22;;;0.80;;
49592;SDS011;35499;51.482;4.264;2022-11-15T10:46:26;1.10;;;0.50;;
49592;SDS011;35499;51.482;4.264;2022-11-15T10:48:51;3.60;;;0.83;;
49592;SDS011;35499;51.482;4.264;2022-11-15T10:51:20;0.33;;;0.33;;
49592;SDS011;35499;51.482;4.264;2022-11-15T10:53:45;6.03;;;0.85;;
49592;SDS011;35499;51.482;4.264;2022-11-15T10:56:12;2.20;;;0.70;;
49592;SDS011;35499;51.482;4.264;2022-11-15T10:58:38;1.70;;;0.65;;
49592;SDS011;35499;51.482;4.264;2022-11-15T11:01:13;1.48;;;0.60;;
49592;SDS011;35499;51.482;4.264;2022-11-15T11:03:39;1.60;;;0.63;;
49592;SDS011;35499;51.482;4.264;2022-11-15T11:06:09;2.97;;;1.10;;
49592;SDS011;35499;51.482;4.264;2022-11-15T11:08:35;1.50;;;0.60;;
49592;SDS011;35499;51.482;4.264;2022-11-15T11:11:02;3.33;;;0.70;;
49592;SDS011;35499;51.482;4.264;2022-11-15T11:13:28;2.42;;;0.57;;
49592;SDS011;35499;51.482;4.264;2022-11-15T11:18:37;3.20;;;0.98;;
49592;SDS011;35499;51.482;4.264;2022-11-15T11:21:05;2.42;;;0.60;;
49592;SDS011;35499;51.482;4.264;2022-11-15T11:31:22;2.05;;;0.60;;
49592;SDS011;35499;51.482;4.264;2022-11-15T11:34:02;2.13;;;0.88;;
49592;SDS011;35499;51.482;4.264;2022-11-15T11:36:39;4.18;;;0.40;;
49592;SDS011;35499;51.482;4.264;2022-11-15T11:41:56;1.95;;;0.30;;
49592;SDS011;35499;51.482;4.264;2022-11-15T11:51:54;2.70;;;0.43;;
49592;SDS011;35499;51.482;4.264;2022-11-15T11:55:05;3.58;;;0.50;;
49592;SDS011;35499;51.482;4.264;2022-11-15T11:57:14;2.65;;;0.65;;
49592;SDS011;35499;51.482;4.264;2022-11-15T11:59:46;3.58;;;0.60;;
49592;SDS011;35499;51.482;4.264;2022-11-15T12:02:17;5.25;;;0.70;;
49592;SDS011;35499;51.482;4.264;2022-11-15T12:04:45;2.25;;;0.50;;
49592;SDS011;35499;51.482;4.264;2022-11-15T12:07:17;1.73;;;0.63;;
49592;SDS011;35499;51.482;4.264;2022-11-15T12:12:17;1.65;;;0.45;;
49592;SDS011;35499;51.482;4.264;2022-11-15T12:14:48;2.20;;;0.28;;
49592;SDS011;35499;51.482;4.264;2022-11-15T12:17:14;0.98;;;0.50;;
49592;SDS011;35499;51.482;4.264;2022-11-15T12:19:40;1.25;;;0.80;;
49592;SDS011;35499;51.482;4.264;2022-11-15T12:22:19;4.80;;;0.80;;
49592;SDS011;35499;51.482;4.264;2022-11-15T12:24:51;2.50;;;0.57;;
49592;SDS011;35499;51.482;4.264;2022-11-15T12:29:59;7.32;;;0.93;;
49592;SDS011;35499;51.482;4.264;2022-11-15T12:32:33;1.30;;;0.52;;
49592;SDS011;35499;51.482;4.264;2022-11-15T12:35:00;3.88;;;0.70;;
49592;SDS011;35499;51.482;4.264;2022-11-15T12:37:59;2.53;;;0.43;;
49592;SDS011;35499;51.482;4.264;2022-11-15T12:45:35;1.52;;;0.55;;
49592;SDS011;35499;51.482;4.264;2022-11-15T12:58:27;3.70;;;1.48;;
49592;SDS011;35499;51.482;4.264;2022-11-15T13:00:53;1.52;;;0.40;;
49592;SDS011;35499;51.482;4.264;2022-11-15T13:03:20;3.33;;;0.60;;
49592;SDS011;35499;51.482;4.264;2022-11-15T13:08:10;4.03;;;0.40;;
49592;SDS011;35499;51.482;4.264;2022-11-15T13:10:56;1.33;;;0.50;;
49592;SDS011;35499;51.482;4.264;2022-11-15T13:13:41;0.87;;;0.40;;
49592;SDS011;35499;51.482;4.264;2022-11-15T13:16:06;4.50;;;0.50;;
49592;SDS011;35499;51.482;4.264;2022-11-15T13:18:33;0.63;;;0.30;;
49592;SDS011;35499;51.482;4.264;2022-11-15T13:20:58;0.98;;;0.40;;
49592;SDS011;35499;51.482;4.264;2022-11-15T13:23:24;0.50;;;0.35;;
49592;SDS011;35499;51.482;4.264;2022-11-15T13:25:55;0.20;;;0.20;;
49592;SDS011;35499;51.482;4.264;2022-11-15T13:31:14;1.90;;;0.57;;
49592;SDS011;35499;51.482;4.264;2022-11-15T13:33:40;1.85;;;0.57;;
49592;SDS011;35499;51.482;4.264;2022-11-15T13:38:40;1.85;;;0.63;;
49592;SDS011;35499;51.482;4.264;2022-11-15T13:43:43;0.82;;;0.40;;
49592;SDS011;35499;51.482;4.264;2022-11-15T13:46:24;0.70;;;0.50;;
49592;SDS011;35499;51.482;4.264;2022-11-15T13:49:08;5.63;;;0.57;;
49592;SDS011;35499;51.482;4.264;2022-11-15T13:51:43;0.60;;;0.50;;
49592;SDS011;35499;51.482;4.264;2022-11-15T13:54:25;0.63;;;0.30;;
49592;SDS011;35499;51.482;4.264;2022-11-15T13:56:53;1.35;;;0.30;;
49592;SDS011;35499;51.482;4.264;2022-11-15T13:59:27;1.65;;;0.45;;
49592;SDS011;35499;51.482;4.264;2022-11-15T14:01:53;0.57;;;0.35;;
49592;SDS011;35499;51.482;4.264;2022-11-15T14:04:20;1.95;;;0.50;;
49592;SDS011;35499;51.482;4.264;2022-11-15T14:06:46;0.52;;;0.30;;
49592;SDS011;35499;51.482;4.264;2022-11-15T14:09:32;0.88;;;0.50;;
49592;SDS011;35499;51.482;4.264;2022-11-15T14:11:57;5.80;;;0.82;;
49592;SDS011;35499;51.482;4.264;2022-11-15T14:14:24;0.95;;;0.80;;
49592;SDS011;35499;51.482;4.264;2022-11-15T14:16:59;0.85;;;0.43;;
49592;SDS011;35499;51.482;4.264;2022-11-15T14:24:33;2.15;;;1.52;;
49592;SDS011;35499;51.482;4.264;2022-11-15T14:27:15;0.83;;;0.50;;
49592;SDS011;35499;51.482;4.264;2022-11-15T14:29:40;4.68;;;0.52;;
49592;SDS011;35499;51.482;4.264;2022-11-15T14:32:12;2.73;;;0.40;;
49592;SDS011;35499;51.482;4.264;2022-11-15T14:34:37;3.25;;;0.95;;
49592;SDS011;35499;51.482;4.264;2022-11-15T14:37:02;0.50;;;0.47;;
49592;SDS011;35499;51.482;4.264;2022-11-15T14:39:28;2.17;;;0.50;;
49592;SDS011;35499;51.482;4.264;2022-11-15T14:41:53;2.30;;;1.40;;
49592;SDS011;35499;51.482;4.264;2022-11-15T14:44:18;5.27;;;1.10;;
49592;SDS011;35499;51.482;4.264;2022-11-15T14:46:45;1.48;;;0.45;;
49592;SDS011;35499;51.482;4.264;2022-11-15T14:49:10;2.53;;;0.30;;
49592;SDS011;35499;51.482;4.264;2022-11-15T14:51:37;3.30;;;0.30;;
49592;SDS011;35499;51.482;4.264;2022-11-15T14:54:03;1.97;;;0.50;;
49592;SDS011;35499;51.482;4.264;2022-11-15T14:56:28;2.50;;;0.73;;
49592;SDS011;35499;51.482;4.264;2022-11-15T14:58:53;2.03;;;0.50;;
49592;SDS011;35499;51.482;4.264;2022-11-15T15:01:21;2.78;;;0.65;;
49592;SDS011;35499;51.482;4.264;2022-11-15T15:03:48;1.65;;;0.75;;
49592;SDS011;35499;51.482;4.264;2022-11-15T15:06:13;5.83;;;1.37;;
49592;SDS011;35499;51.482;4.264;2022-11-15T15:08:41;1.85;;;1.00;;
49592;SDS011;35499;51.482;4.264;2022-11-15T15:11:09;1.63;;;0.68;;
49592;SDS011;35499;51.482;4.264;2022-11-15T15:13:35;1.00;;;0.40;;
49592;SDS011;35499;51.482;4.264;2022-11-15T15:16:00;1.23;;;0.73;;
49592;SDS011;35499;51.482;4.264;2022-11-15T15:18:25;2.20;;;0.70;;
49592;SDS011;35499;51.482;4.264;2022-11-15T15:20:59;2.20;;;0.80;;
49592;SDS011;35499;51.482;4.264;2022-11-15T15:23:27;1.65;;;0.77;;
49592;SDS011;35499;51.482;4.264;2022-11-15T15:25:54;1.15;;;0.55;;
49592;SDS011;35499;51.482;4.264;2022-11-15T15:28:19;3.00;;;0.90;;
49592;SDS011;35499;51.482;4.264;2022-11-15T15:30:44;2.13;;;0.67;;
49592;SDS011;35499;51.482;4.264;2022-11-15T15:33:09;1.40;;;0.77;;
49592;SDS011;35499;51.482;4.264;2022-11-15T15:35:34;3.87;;;0.80;;
49592;SDS011;35499;51.482;4.264;2022-11-15T15:38:00;5.75;;;1.05;;
49592;SDS011;35499;51.482;4.264;2022-11-15T15:40:27;2.05;;;1.13;;
49592;SDS011;35499;51.482;4.264;2022-11-15T15:42:52;0.60;;;0.40;;
49592;SDS011;35499;51.482;4.264;2022-11-15T15:45:18;3.87;;;1.23;;
49592;SDS011;35499;51.482;4.264;2022-11-15T15:47:43;0.57;;;0.57;;
49592;SDS011;35499;51.482;4.264;2022-11-15T15:50:12;2.50;;;0.75;;
49592;SDS011;35499;51.482;4.264;2022-11-15T15:52:39;6.38;;;1.02;;
49592;SDS011;35499;51.482;4.264;2022-11-15T15:55:04;4.70;;;1.43;;
49592;SDS011;35499;51.482;4.264;2022-11-15T15:57:29;4.23;;;0.60;;
49592;SDS011;35499;51.482;4.264;2022-11-15T15:59:55;1.27;;;0.60;;
49592;SDS011;35499;51.482;4.264;2022-11-15T16:02:20;0.82;;;0.45;;
49592;SDS011;35499;51.482;4.264;2022-11-15T16:04:45;2.80;;;0.93;;
49592;SDS011;35499;51.482;4.264;2022-11-15T16:07:15;0.67;;;0.60;;
49592;SDS011;35499;51.482;4.264;2022-11-15T16:09:41;1.67;;;0.50;;
49592;SDS011;35499;51.482;4.264;2022-11-15T16:12:25;1.75;;;0.80;;
49592;SDS011;35499;51.482;4.264;2022-11-15T16:14:50;2.60;;;1.15;;
49592;SDS011;35499;51.482;4.264;2022-11-15T16:17:19;3.00;;;0.98;;
49592;SDS011;35499;51.482;4.264;2022-11-15T16:19:45;2.47;;;0.90;;
49592;SDS011;35499;51.482;4.264;2022-11-15T16:22:10;0.53;;;0.53;;
49592;SDS011;35499;51.482;4.264;2022-11-15T16:24:35;1.48;;;0.82;;
49592;SDS011;35499;51.482;4.264;2022-11-15T16:27:00;1.27;;;0.67;;
49592;SDS011;35499;51.482;4.264;2022-11-15T16:29:26;1.15;;;1.05;;
49592;SDS011;35499;51.482;4.264;2022-11-15T16:31:51;3.00;;;0.80;;
49592;SDS011;35499;51.482;4.264;2022-11-15T16:34:16;3.33;;;0.60;;
49592;SDS011;35499;51.482;4.264;2022-11-15T16:36:42;2.25;;;0.70;;